Time;durP1;ratioP1;P1;durP2;ratioP2;P2;SDS_P1;SDS_P2;PMS_P1;PMS_P2;Temp;Humidity;BMP_temperature;BMP_pressure;BME280_temperature;BME280_humidity;BME280_pressure;Samples;Min_cycle;Max_cycle;Signal;HPM_P1;HPM_P2
2023/10/26 00:00:04;;;;;;;;;;;;;;;16.53;100.00;98838.72;4995068;28;894;-63
2023/10/26 00:02:32;;;;;;;;;;;;;;;16.45;100.00;98843.88;4993977;28;918;-63
2023/10/26 00:04:58;;;;;;;;;;;;;;;16.34;100.00;98840.75;4994923;28;828;-63
2023/10/26 00:07:25;;;;;;;;;;;;;;;16.22;100.00;98850.84;4994763;28;867;-63
2023/10/26 00:09:50;;;;;;;;;;;;;;;16.10;100.00;98862.91;4994863;28;852;-63
2023/10/26 00:12:17;;;;;;;;;;;;;;;15.99;100.00;98868.94;4994817;28;862;-63
2023/10/26 00:14:44;;;;;;;;;;;;;;;15.90;100.00;98868.91;4994674;28;847;-63
2023/10/26 00:17:11;;;;;;;;;;;;;;;15.86;100.00;98866.28;4994697;28;1952;-63
2023/10/26 00:19:38;;;;;;;;;;;;;;;15.78;100.00;98859.44;4994572;28;866;-63
2023/10/26 00:22:05;;;;;;;;;;;;;;;15.68;100.00;98849.47;4994370;28;1223;-63
2023/10/26 00:24:33;;;;;;;;;;;;;;;15.59;100.00;98836.31;4994673;28;901;-63
2023/10/26 00:27:00;;;;;;;;;;;;;;;15.49;100.00;98824.38;4994592;28;1036;-63
2023/10/26 00:29:27;;;;;;;;;;;;;;;15.44;100.00;98821.41;4994512;28;870;-63
2023/10/26 00:31:54;;;;;;;;;;;;;;;15.43;100.00;98820.66;4994444;28;838;-63
2023/10/26 00:34:21;;;;;;;;;;;;;;;15.54;100.00;98825.78;4994489;28;870;-63
2023/10/26 00:36:48;;;;;;;;;;;;;;;15.64;100.00;98818.22;4994157;28;1971;-63
2023/10/26 00:39:13;;;;;;;;;;;;;;;15.65;100.00;98820.53;4976930;28;1360;-63
2023/10/26 00:41:40;;;;;;;;;;;;;;;15.60;100.00;98815.59;4994217;28;830;-63
2023/10/26 00:44:07;;;;;;;;;;;;;;;15.55;100.00;98815.41;4994572;28;799;-63
2023/10/26 00:46:34;;;;;;;;;;;;;;;15.49;100.00;98807.69;4994138;28;891;-63
2023/10/26 00:49:02;;;;;;;;;;;;;;;15.45;100.00;98811.84;4994168;28;847;-63
2023/10/26 00:51:29;;;;;;;;;;;;;;;15.41;100.00;98811.22;4994065;28;847;-63
2023/10/26 00:53:56;;;;;;;;;;;;;;;15.32;100.00;98807.16;4994029;28;883;-63
2023/10/26 00:56:22;;;;;;;;;;;;;;;15.24;100.00;98808.69;4994250;28;1890;-63
2023/10/26 00:58:49;;;;;;;;;;;;;;;15.19;100.00;98814.84;4994283;28;823;-63
2023/10/26 01:01:17;;;;;;;;;;;;;;;15.12;100.00;98815.13;4993921;28;941;-63
2023/10/26 01:03:45;;;;;;;;;;;;;;;15.04;100.00;98813.84;4993953;28;855;-63
2023/10/26 01:06:12;;;;;;;;;;;;;;;14.92;100.00;98809.94;4993858;28;811;-63
2023/10/26 01:08:40;;;;;;;;;;;;;;;14.90;100.00;98815.94;4993677;28;878;-63
2023/10/26 01:11:06;;;;;;;;;;;;;;;14.85;100.00;98810.19;4994069;28;807;-63
2023/10/26 01:13:33;;;;;;;;;;;;;;;14.78;100.00;98805.69;4993510;28;815;-63
2023/10/26 01:16:02;;;;;;;;;;;;;;;14.77;100.00;98808.94;4993596;28;906;-63
2023/10/26 01:18:30;;;;;;;;;;;;;;;14.73;100.00;98803.50;4993477;28;1886;-63
2023/10/26 01:20:57;;;;;;;;;;;;;;;14.66;100.00;98792.66;4976446;28;1098;-63
2023/10/26 01:23:24;;;;;;;;;;;;;;;14.61;100.00;98805.13;4993187;28;1257;-63
2023/10/26 01:25:52;;;;;;;;;;;;;;;14.54;100.00;98810.16;4993456;28;831;-63
2023/10/26 01:28:19;;;;;;;;;;;;;;;14.42;100.00;98818.13;4993287;28;881;-63
2023/10/26 01:30:46;;;;;;;;;;;;;;;14.31;100.00;98814.91;4993366;28;843;-63
2023/10/26 01:33:12;;;;;;;;;;;;;;;14.35;100.00;98818.34;4993169;28;902;-63
2023/10/26 01:35:41;;;;;;;;;;;;;;;14.37;100.00;98818.69;4993233;28;891;-63
2023/10/26 01:38:08;;;;;;;;;;;;;;;14.43;100.00;98824.44;4993156;28;1914;-63
2023/10/26 01:40:35;;;;;;;;;;;;;;;14.50;100.00;98824.94;4993191;28;1273;-63
2023/10/26 01:43:01;;;;;;;;;;;;;;;14.46;100.00;98827.06;4993382;28;852;-63
2023/10/26 01:45:28;;;;;;;;;;;;;;;14.38;100.00;98825.00;4993069;28;887;-63
2023/10/26 01:47:54;;;;;;;;;;;;;;;14.40;100.00;98833.66;4992990;28;999;-63
2023/10/26 01:50:21;;;;;;;;;;;;;;;14.39;100.00;98829.34;4992952;28;905;-63
2023/10/26 01:52:48;;;;;;;;;;;;;;;14.35;100.00;98832.25;4992966;28;816;-63
2023/10/26 01:55:16;;;;;;;;;;;;;;;14.31;100.00;98834.38;4992877;28;846;-63
2023/10/26 01:57:42;;;;;;;;;;;;;;;14.25;100.00;98825.06;4992832;28;1903;-63
2023/10/26 02:00:09;;;;;;;;;;;;;;;14.17;100.00;98827.34;4992764;28;835;-63
2023/10/26 02:02:36;;;;;;;;;;;;;;;14.14;100.00;98827.44;4993012;28;803;-63
2023/10/26 02:05:03;;;;;;;;;;;;;;;14.17;100.00;98829.34;4992667;28;823;-63
2023/10/26 02:07:29;;;;;;;;;;;;;;;14.26;100.00;98813.50;4992717;28;796;-63
2023/10/26 02:09:55;;;;;;;;;;;;;;;14.26;100.00;98807.94;4992790;28;823;-62
2023/10/26 02:12:22;;;;;;;;;;;;;;;14.21;100.00;98791.06;4992792;28;815;-63
2023/10/26 02:14:49;;;;;;;;;;;;;;;14.05;100.00;98789.25;4992624;28;815;-63
2023/10/26 02:17:15;;;;;;;;;;;;;;;14.08;100.00;98805.81;4992479;28;1882;-63
2023/10/26 02:19:42;;;;;;;;;;;;;;;14.07;100.00;98809.03;4992526;28;878;-63
2023/10/26 02:22:09;;;;;;;;;;;;;;;14.21;100.00;98813.28;4992295;28;1319;-63
2023/10/26 02:24:36;;;;;;;;;;;;;;;14.33;100.00;98822.81;4992553;28;827;-63
2023/10/26 02:27:02;;;;;;;;;;;;;;;14.36;100.00;98816.34;4991819;28;886;-63
2023/10/26 02:29:29;;;;;;;;;;;;;;;14.38;100.00;98816.66;4992542;28;787;-63
2023/10/26 02:31:56;;;;;;;;;;;;;;;14.38;100.00;98820.25;4992348;28;923;-63
2023/10/26 02:34:23;;;;;;;;;;;;;;;14.45;100.00;98822.00;4974858;28;1265;-63
2023/10/26 02:36:50;;;;;;;;;;;;;;;14.52;100.00;98815.38;4992463;28;1914;-63
2023/10/26 02:39:17;;;;;;;;;;;;;;;14.54;100.00;98810.16;4992542;28;796;-63
2023/10/26 02:41:43;;;;;;;;;;;;;;;14.44;100.00;98812.84;4992412;28;863;-63
2023/10/26 02:44:10;;;;;;;;;;;;;;;14.36;100.00;98825.47;4992350;28;893;-63
2023/10/26 02:46:37;;;;;;;;;;;;;;;14.21;100.00;98819.66;4992378;28;874;-62
2023/10/26 02:49:04;;;;;;;;;;;;;;;14.06;100.00;98821.34;4992245;28;882;-63
2023/10/26 02:51:31;;;;;;;;;;;;;;;13.94;100.00;98833.31;4992172;28;875;-62
2023/10/26 02:53:58;;;;;;;;;;;;;;;13.88;100.00;98841.41;4992239;28;878;-62
2023/10/26 02:56:25;;;;;;;;;;;;;;;13.85;100.00;98847.88;4992200;28;1890;-63
2023/10/26 02:58:52;;;;;;;;;;;;;;;13.90;100.00;98836.19;4992156;28;796;-63
2023/10/26 03:01:18;;;;;;;;;;;;;;;13.89;100.00;98827.09;4974728;28;1269;-62
2023/10/26 03:03:45;;;;;;;;;;;;;;;14.00;100.00;98831.50;4992069;28;874;-63
2023/10/26 03:06:12;;;;;;;;;;;;;;;13.98;100.00;98834.72;4992161;28;874;-63
2023/10/26 03:08:39;;;;;;;;;;;;;;;13.86;100.00;98841.09;4992068;28;887;-62
2023/10/26 03:11:06;;;;;;;;;;;;;;;13.88;100.00;98841.41;4992196;28;795;-63
2023/10/26 03:13:32;;;;;;;;;;;;;;;14.01;100.00;98833.06;4992011;28;816;-63
2023/10/26 03:15:59;;;;;;;;;;;;;;;14.05;100.00;98828.16;4992126;28;870;-63
2023/10/26 03:18:25;;;;;;;;;;;;;;;13.96;100.00;98819.75;4992206;28;1890;-63
2023/10/26 03:20:52;;;;;;;;;;;;;;;13.88;100.00;98821.97;4992318;28;1032;-63
2023/10/26 03:23:19;;;;;;;;;;;;;;;13.77;100.00;98822.34;4991871;28;1491;-63
2023/10/26 03:25:45;;;;;;;;;;;;;;;13.60;100.00;98832.03;4991949;28;808;-63
2023/10/26 03:28:12;;;;;;;;;;;;;;;13.51;100.00;98852.16;4991969;28;910;-63
2023/10/26 03:30:39;;;;;;;;;;;;;;;13.51;100.00;98838.28;4991851;28;855;-63
2023/10/26 03:33:05;;;;;;;;;;;;;;;13.54;100.00;98839.38;4991875;28;850;-63
2023/10/26 03:35:35;;;;;;;;;;;;;;;13.56;100.00;98834.94;4992146;28;812;-63
2023/10/26 03:38:02;;;;;;;;;;;;;;;13.53;100.00;98829.47;4993934;28;1910;-64
2023/10/26 03:40:28;;;;;;;;;;;;;;;13.49;100.00;98821.28;4995463;28;862;-63
2023/10/26 03:42:55;;;;;;;;;;;;;;;13.39;100.00;98825.19;4995331;28;850;-63
2023/10/26 03:45:22;;;;;;;;;;;;;;;13.24;100.00;98816.50;4995319;28;898;-63
2023/10/26 03:47:48;;;;;;;;;;;;;;;13.12;100.00;98820.03;4995295;28;820;-63
2023/10/26 03:50:14;;;;;;;;;;;;;;;13.02;100.00;98816.41;4977725;28;1336;-63
2023/10/26 03:52:41;;;;;;;;;;;;;;;12.93;100.00;98814.28;4995214;28;847;-63
2023/10/26 03:55:08;;;;;;;;;;;;;;;12.92;100.00;98806.41;4995167;28;874;-63
2023/10/26 03:57:35;;;;;;;;;;;;;;;12.81;100.00;98810.25;4995227;28;1973;-63
2023/10/26 04:00:03;;;;;;;;;;;;;;;12.59;100.00;98806.59;4977782;28;1441;-63
2023/10/26 04:02:30;;;;;;;;;;;;;;;12.49;100.00;98802.13;4994884;28;834;-62
2023/10/26 04:04:56;;;;;;;;;;;;;;;12.52;100.00;98807.53;4977502;28;2033;-63
2023/10/26 04:07:23;;;;;;;;;;;;;;;12.58;100.00;98807.78;4994979;28;870;-63
2023/10/26 04:09:49;;;;;;;;;;;;;;;12.56;100.00;98813.75;4995125;28;866;-62
2023/10/26 04:12:15;;;;;;;;;;;;;;;12.55;100.00;98805.91;4994848;28;914;-63
2023/10/26 04:14:42;;;;;;;;;;;;;;;12.50;100.00;98811.97;4994858;28;819;-62
2023/10/26 04:17:07;;;;;;;;;;;;;;;12.47;100.00;98821.94;4994740;28;1914;-62
2023/10/26 04:19:34;;;;;;;;;;;;;;;12.53;100.00;98841.59;4994742;28;819;-63
2023/10/26 04:22:01;;;;;;;;;;;;;;;12.62;100.00;98831.41;4973652;28;1255;-63
2023/10/26 04:24:28;;;;;;;;;;;;;;;12.72;100.00;98834.34;4975493;28;870;-62
2023/10/26 04:26:55;;;;;;;;;;;;;;;12.83;100.00;98832.00;4975101;28;882;-63
2023/10/26 04:29:21;;;;;;;;;;;;;;;12.88;100.00;98829.44;4975454;28;878;-62
2023/10/26 04:31:48;;;;;;;;;;;;;;;12.85;100.00;98837.91;4974942;28;871;-63
2023/10/26 04:34:15;;;;;;;;;;;;;;;12.79;100.00;98826.56;4975097;28;886;-63
2023/10/26 04:36:43;;;;;;;;;;;;;;;12.86;100.00;98831.88;4974904;28;1914;-62
2023/10/26 04:39:09;;;;;;;;;;;;;;;12.94;100.00;98837.25;4974883;28;803;-63
2023/10/26 04:41:36;;;;;;;;;;;;;;;12.91;100.00;98832.56;4974881;28;917;-63
2023/10/26 04:44:05;;;;;;;;;;;;;;;12.91;100.00;98836.13;4974906;28;863;-63
2023/10/26 04:46:31;;;;;;;;;;;;;;;12.97;100.00;98841.91;4974735;28;831;-63
2023/10/26 04:48:57;;;;;;;;;;;;;;;13.06;100.00;98844.81;4974491;28;808;-63
2023/10/26 04:51:24;;;;;;;;;;;;;;;13.13;100.00;98855.69;4974670;28;834;-63
2023/10/26 04:53:51;;;;;;;;;;;;;;;13.20;100.00;98852.69;4974682;28;875;-63
2023/10/26 04:56:17;;;;;;;;;;;;;;;13.32;100.00;98853.94;4974605;28;1878;-63
2023/10/26 04:58:44;;;;;;;;;;;;;;;13.36;100.00;98857.38;4974538;28;827;-63
2023/10/26 05:01:10;;;;;;;;;;;;;;;13.46;100.00;98859.06;4974503;28;941;-63
2023/10/26 05:03:38;;;;;;;;;;;;;;;13.56;100.00;98862.69;4974529;28;859;-63
2023/10/26 05:06:04;;;;;;;;;;;;;;;13.66;100.00;98866.34;4974614;28;890;-63
2023/10/26 05:08:31;;;;;;;;;;;;;;;13.77;100.00;98866.78;4974458;28;843;-63
2023/10/26 05:10:58;;;;;;;;;;;;;;;13.83;100.00;98859.44;4974616;28;839;-63
2023/10/26 05:13:24;;;;;;;;;;;;;;;13.87;100.00;98864.88;4974465;28;869;-63
2023/10/26 05:15:55;;;;;;;;;;;;;;;13.91;100.00;98857.19;4974590;28;1222;-63
2023/10/26 05:18:22;;;;;;;;;;;;;;;13.92;100.00;98858.75;4974137;28;1953;-63
2023/10/26 05:20:51;;;;;;;;;;;;;;;13.88;100.00;98867.19;4974366;28;926;-63
2023/10/26 05:23:18;;;;;;;;;;;;;;;13.80;100.00;98873.44;4991080;28;1228;-63
2023/10/26 05:25:44;;;;;;;;;;;;;;;13.78;100.00;98884.22;4993561;28;838;-63
2023/10/26 05:28:11;;;;;;;;;;;;;;;13.81;100.00;98877.78;4993438;28;855;-63
2023/10/26 05:30:38;;;;;;;;;;;;;;;13.87;100.00;98879.53;4993158;28;887;-63
2023/10/26 05:33:04;;;;;;;;;;;;;;;13.94;100.00;98889.63;4993457;28;902;-63
2023/10/26 05:35:31;;;;;;;;;;;;;;;13.95;100.00;98888.41;4993211;28;875;-63
2023/10/26 05:37:57;;;;;;;;;;;;;;;13.94;100.00;98889.63;4993136;28;1906;-63
2023/10/26 05:40:24;;;;;;;;;;;;;;;14.00;100.00;98890.63;4993167;28;958;-63
2023/10/26 05:42:50;;;;;;;;;;;;;;;14.24;100.00;98893.00;4993221;28;863;-63
2023/10/26 05:45:17;;;;;;;;;;;;;;;14.66;100.00;98893.53;4993023;28;889;-64
2023/10/26 05:47:55;;;;;;;;;;;;;;;15.18;100.00;98880.09;4993136;28;808;-63
2023/10/26 05:50:21;;;;;;;;;;;;;;;15.48;100.00;98872.16;4993040;28;831;-63
2023/10/26 05:52:48;;;;;;;;;;;;;;;15.41;100.00;98878.03;4992877;28;855;-64
2023/10/26 05:55:14;;;;;;;;;;;;;;;15.26;100.00;98875.03;4993051;28;811;-64
2023/10/26 05:57:40;;;;;;;;;;;;;;;15.19;100.00;98876.09;4992774;28;1890;-64
2023/10/26 06:00:09;;;;;;;;;;;;;;;15.16;100.00;98874.19;4992485;28;855;-64
2023/10/26 06:02:36;;;;;;;;;;;;;;;15.20;100.00;98874.06;4992405;28;969;-63
2023/10/26 06:05:03;;;;;;;;;;;;;;;15.27;100.00;98871.00;4992892;28;843;-63
2023/10/26 06:07:29;;;;;;;;;;;;;;;15.39;100.00;98870.13;4992658;28;820;-63
2023/10/26 06:09:56;;;;;;;;;;;;;;;15.88;100.00;98883.31;4992761;28;839;-63
2023/10/26 06:12:23;;;;;;;;;;;;;;;16.32;100.00;98882.25;4992583;28;875;-64
2023/10/26 06:14:49;;;;;;;;;;;;;;;16.81;100.00;98872.97;4992738;28;847;-64
2023/10/26 06:17:16;;;;;;;;;;;;;;;17.46;100.00;98881.19;4992517;28;1886;-64
2023/10/26 06:19:43;;;;;;;;;;;;;;;18.03;100.00;98889.59;4992683;28;1114;-65
2023/10/26 06:22:10;;;;;;;;;;;;;;;18.42;100.00;98891.66;4992308;28;1331;-65
2023/10/26 06:24:36;;;;;;;;;;;;;;;18.42;100.00;98892.41;4992587;28;874;-65
2023/10/26 06:27:03;;;;;;;;;;;;;;;18.28;100.00;98915.50;4992397;28;887;-64
2023/10/26 06:29:29;;;;;;;;;;;;;;;18.45;100.00;98913.06;4992392;28;871;-64
2023/10/26 06:31:56;;;;;;;;;;;;;;;18.82;100.00;98921.97;4992422;28;799;-65
2023/10/26 06:34:22;;;;;;;;;;;;;;;19.31;100.00;98914.94;4992439;28;889;-65
2023/10/26 06:36:49;;;;;;;;;;;;;;;19.73;100.00;98911.00;4992297;28;1906;-65
2023/10/26 06:39:16;;;;;;;;;;;;;;;19.73;100.00;98905.41;4992333;28;858;-65
2023/10/26 06:41:43;;;;;;;;;;;;;;;19.92;100.00;98907.97;4992311;28;1007;-65
2023/10/26 06:44:09;;;;;;;;;;;;;;;20.34;100.00;98912.34;4974805;28;1296;-65
2023/10/26 06:46:36;;;;;;;;;;;;;;;20.51;100.00;98913.31;4992319;28;807;-65
2023/10/26 06:49:02;;;;;;;;;;;;;;;20.25;100.00;98910.47;4992437;28;827;-65
2023/10/26 06:51:30;;;;;;;;;;;;;;;20.13;100.00;98906.72;4992499;28;899;-66
2023/10/26 06:53:56;;;;;;;;;;;;;;;20.19;100.00;98918.78;4992532;28;851;-67
2023/10/26 06:56:23;;;;;;;;;;;;;;;20.33;100.00;98922.81;4992223;28;1953;-67
2023/10/26 06:58:50;;;;;;;;;;;;;;;20.03;100.00;98924.19;4992057;28;832;-66
2023/10/26 07:01:16;;;;;;;;;;;;;;;19.98;100.00;98926.41;4992369;28;831;-67
2023/10/26 07:03:44;;;;;;;;;;;;;;;20.08;100.00;98918.66;4992087;28;792;-66
2023/10/26 07:06:10;;;;;;;;;;;;;;;19.90;100.00;98910.50;4992139;28;811;-67
2023/10/26 07:08:37;;;;;;;;;;;;;;;19.44;100.00;98899.81;4992138;28;838;-66
2023/10/26 07:11:06;;;;;;;;;;;;;;;19.43;100.00;98895.50;4992124;28;847;-66
2023/10/26 07:13:34;;;;;;;;;;;;;;;20.03;100.00;98901.75;4995361;28;879;-67
2023/10/26 07:16:01;;;;;;;;;;;;;;;20.02;100.00;98903.78;4996000;28;893;-66
2023/10/26 07:18:28;;;;;;;;;;;;;;;20.30;100.00;98911.78;4996135;28;1898;-66
2023/10/26 07:20:55;;;;;;;;;;;;;;;20.45;100.00;98917.31;4996003;28;937;-66
2023/10/26 07:23:21;;;;;;;;;;;;;;;21.14;100.00;98900.72;4974908;28;1420;-67
2023/10/26 07:25:48;;;;;;;;;;;;;;;21.72;100.00;98904.28;4976306;28;808;-66
2023/10/26 07:28:15;;;;;;;;;;;;;;;21.91;100.00;98909.47;4976379;28;863;-68
2023/10/26 07:30:42;;;;;;;;;;;;;;;21.95;100.00;98924.84;4976299;28;843;-67
2023/10/26 07:33:09;;;;;;;;;;;;;;;21.86;100.00;98913.81;4976210;28;906;-67
2023/10/26 07:35:41;;;;;;;;;;;;;;;21.56;100.00;98911.31;4976035;28;911;-67
2023/10/26 07:38:08;;;;;;;;;;;;;;;21.29;100.00;98925.88;4974742;28;1922;-67
2023/10/26 07:40:36;;;;;;;;;;;;;;;21.39;100.00;98919.56;4976182;28;891;-68
2023/10/26 07:43:02;;;;;;;;;;;;;;;21.59;100.00;98920.78;4976220;28;902;-67
2023/10/26 07:45:28;;;;;;;;;;;;;;;21.93;100.00;98912.56;4975920;28;811;-67
2023/10/26 07:47:55;;;;;;;;;;;;;;;21.78;100.00;98912.72;4975941;28;940;-68
2023/10/26 07:50:22;;;;;;;;;;;;;;;21.62;100.00;98897.28;4975774;28;859;-69
2023/10/26 07:52:49;;;;;;;;;;;;;;;21.92;100.00;98882.91;4975840;28;799;-67
2023/10/26 07:55:17;;;;;;;;;;;;;;;22.71;100.00;98871.97;4975857;28;910;-67
2023/10/26 07:57:42;;;;;;;;;;;;;;;23.52;100.00;98873.06;4975467;28;1946;-67
2023/10/26 08:00:11;;;;;;;;;;;;;;;23.84;100.00;98876.34;4976027;28;843;-69
2023/10/26 08:02:38;;;;;;;;;;;;;;;24.04;100.00;98877.31;4975569;28;878;-69
2023/10/26 08:05:05;;;;;;;;;;;;;;;23.98;100.00;98896.31;4975731;28;881;-69
2023/10/26 08:07:32;;;;;;;;;;;;;;;23.86;100.00;98914.59;4975492;28;854;-69
2023/10/26 08:09:58;;;;;;;;;;;;;;;24.08;100.00;98913.75;4975481;28;885;-70
2023/10/26 08:12:25;;;;;;;;;;;;;;;24.21;100.00;98899.84;4975482;28;819;-69
2023/10/26 08:14:52;;;;;;;;;;;;;;;23.93;100.00;98899.94;4975405;28;921;-69
2023/10/26 08:17:19;;;;;;;;;;;;;;;23.81;100.00;98896.34;4975346;28;1949;-69
2023/10/26 08:19:46;;;;;;;;;;;;;;;24.12;100.00;98895.25;4975280;28;886;-67
2023/10/26 08:22:12;;;;;;;;;;;;;;;24.60;100.00;98899.72;4983253;28;1268;-70
2023/10/26 08:24:39;;;;;;;;;;;;;;;24.52;100.00;98897.97;4993739;28;831;-70
2023/10/26 08:27:06;;;;;;;;;;;;;;;24.53;100.00;98907.97;4994798;28;874;-69
2023/10/26 08:29:32;;;;;;;;;;;;;;;24.62;100.00;98908.44;4994529;28;808;-70
2023/10/26 08:31:59;;;;;;;;;;;;;;;24.82;100.00;98898.06;4994543;28;850;-70
2023/10/26 08:34:27;;;;;;;;;;;;;;;24.94;100.00;98893.06;4994426;28;876;-69
2023/10/26 08:36:54;;;;;;;;;;;;;;;25.11;100.00;98890.91;4994439;28;1911;-70
2023/10/26 08:39:20;;;;;;;;;;;;;;;25.01;100.00;98903.84;4994367;28;890;-71
2023/10/26 08:41:57;;;;;;;;;;;;;;;25.04;100.00;98903.53;4994240;28;898;-68
2023/10/26 08:44:26;;;;;;;;;;;;;;;24.69;100.00;98911.97;4994194;28;1101;-71
2023/10/26 08:46:58;;;;;;;;;;;;;;;24.21;100.00;98906.25;4994330;28;859;-71
2023/10/26 08:49:26;;;;;;;;;;;;;;;24.33;100.00;98900.59;4994254;28;902;-71
2023/10/26 09:23:01;;;;;;;;;;;;;;;24.18;100.00;98862.13;5034465;23;1760;-57
2023/10/26 09:25:27;;;;;;;;;;;;;;;24.69;100.00;98855.47;4993559;28;862;-57
2023/10/26 09:28:00;;;;;;;;;;;;;;;25.13;100.00;98860.03;4976022;28;1293;-57
2023/10/26 09:30:31;;;;;;;;;;;;;;;24.81;100.00;98857.69;4993801;28;1257;-57
2023/10/26 09:32:59;;;;;;;;;;;;;;;24.35;100.00;98847.19;4993393;28;909;-56
2023/10/26 09:35:29;;;;;;;;;;;;;;;24.13;100.00;98851.66;4993437;28;889;-56
2023/10/26 09:37:57;;;;;;;;;;;;;;;24.15;100.00;98842.63;4993232;28;1942;-56
2023/10/26 09:40:25;;;;;;;;;;;;;;;24.37;100.00;98836.13;4993217;28;890;-56
2023/10/26 09:42:52;;;;;;;;;;;;;;;24.42;100.00;98835.34;4993436;28;914;-56
2023/10/26 09:45:19;;;;;;;;;;;;;;;24.51;100.00;98822.97;4993206;28;803;-56
2023/10/26 09:47:46;;;;;;;;;;;;;;;24.46;100.00;98808.34;4993233;28;815;-56
2023/10/26 09:50:13;;;;;;;;;;;;;;;24.46;100.00;98802.69;4993139;28;923;-56
2023/10/26 09:52:41;;;;;;;;;;;;;;;24.58;100.00;98805.47;4993029;28;882;-56
2023/10/26 09:55:08;;;;;;;;;;;;;;;24.49;100.00;98815.03;4993010;28;894;-55
2023/10/26 09:57:37;;;;;;;;;;;;;;;24.52;100.00;98816.06;4992904;28;1949;-55
2023/10/26 10:00:07;;;;;;;;;;;;;;;24.80;100.00;98793.25;4992863;28;858;-55
2023/10/26 10:02:34;;;;;;;;;;;;;;;24.85;100.00;98781.88;4993022;28;851;-56
2023/10/26 10:05:01;;;;;;;;;;;;;;;24.85;100.00;98790.38;4992994;28;863;-55
2023/10/26 10:07:48;;;;;;;;;;;;;;;24.80;100.00;98788.38;4992949;28;795;-56
2023/10/26 10:10:15;;;;;;;;;;;;;;;25.01;100.00;98802.09;4993083;28;957;-56
2023/10/26 10:12:42;;;;;;;;;;;;;;;25.37;100.00;98807.69;4992661;28;938;-56
2023/10/26 10:15:11;;;;;;;;;;;;;;;25.57;100.00;98806.47;4992788;28;847;-55
2023/10/26 10:17:43;;;;;;;;;;;;;;;25.61;100.00;98806.94;4975156;28;1886;-55
2023/10/26 10:20:16;;;;;;;;;;;;;;;25.66;100.00;98808.94;4992885;28;923;-56
2023/10/26 10:22:46;;;;;;;;;;;;;;;25.81;100.00;98797.94;4992545;28;1366;-56
2023/10/26 10:25:13;;;;;;;;;;;;;;;26.08;100.00;98792.50;4992540;28;966;-57
2023/10/26 10:27:59;;;;;;;;;;;;;;;25.99;100.00;98785.16;4992572;28;859;-56
2023/10/26 10:30:29;;;;;;;;;;;;;;;25.47;98.68;98786.25;4978522;28;1202;-57
2023/10/26 10:32:57;;;;;;;;;;;;;;;25.07;99.29;98799.94;4992587;28;869;-56
2023/10/26 10:35:45;;;;;;;;;;;;;;;25.13;99.64;98806.31;4992502;28;946;-56
2023/10/26 10:38:18;;;;;;;;;;;;;;;25.61;97.58;98799.22;4992583;28;1910;-56
2023/10/26 10:40:57;;;;;;;;;;;;;;;25.91;95.84;98791.97;4992408;28;870;-57
2023/10/26 10:43:34;;;;;;;;;;;;;;;25.68;96.47;98781.63;4992465;28;807;-57
2023/10/26 10:46:16;;;;;;;;;;;;;;;25.68;96.34;98786.53;4992453;28;914;-57
2023/10/26 10:49:01;;;;;;;;;;;;;;;25.39;97.27;98788.91;4996038;28;792;-57
2023/10/26 10:51:28;;;;;;;;;;;;;;;25.15;98.17;98795.25;4996380;28;911;-57
2023/10/26 10:53:55;;;;;;;;;;;;;;;25.27;98.58;98787.47;4978913;28;1329;-57
2023/10/26 10:56:23;;;;;;;;;;;;;;;25.39;97.87;98788.13;4996408;28;819;-57
2023/10/26 10:58:52;;;;;;;;;;;;;;;25.25;98.35;98784.41;4996261;28;1859;-57
2023/10/26 11:01:21;;;;;;;;;;;;;;;25.06;99.28;98779.41;4996259;28;870;-58
2023/10/26 11:03:48;;;;;;;;;;;;;;;24.99;99.43;98791.28;4996452;28;835;-57
2023/10/26 11:06:17;;;;;;;;;;;;;;;25.07;98.80;98783.00;4996137;28;843;-58
2023/10/26 11:08:44;;;;;;;;;;;;;;;25.19;98.13;98787.25;4996144;28;858;-57
2023/10/26 11:11:26;;;;;;;;;;;;;;;25.20;97.92;98791.66;4996035;28;851;-57
2023/10/26 11:14:09;;;;;;;;;;;;;;;25.22;98.22;98782.63;4996043;28;819;-57
2023/10/26 11:16:35;;;;;;;;;;;;;;;25.50;97.48;98779.53;4995883;28;1894;-57
2023/10/26 11:19:02;;;;;;;;;;;;;;;25.62;96.74;98766.78;4995947;28;835;-57
2023/10/26 11:21:29;;;;;;;;;;;;;;;25.44;95.62;98753.38;4996035;28;1047;-57
2023/10/26 11:23:56;;;;;;;;;;;;;;;25.47;95.15;98749.47;4995876;28;910;-58
2023/10/26 11:26:22;;;;;;;;;;;;;;;25.37;95.43;98746.25;4995804;28;835;-57
2023/10/26 11:28:49;;;;;;;;;;;;;;;25.31;95.74;98739.13;4995836;28;967;-57
2023/10/26 11:31:15;;;;;;;;;;;;;;;25.23;96.26;98744.59;4995647;28;875;-57
2023/10/26 11:33:45;;;;;;;;;;;;;;;25.10;96.58;98748.03;4995735;28;862;-58
2023/10/26 11:36:13;;;;;;;;;;;;;;;24.94;96.54;98738.41;4995665;28;823;-57
2023/10/26 11:38:49;;;;;;;;;;;;;;;24.75;97.21;98743.97;4995543;28;1906;-58
2023/10/26 11:41:25;;;;;;;;;;;;;;;24.65;98.18;98731.47;4995528;28;834;-57
2023/10/26 11:43:52;;;;;;;;;;;;;;;24.67;98.03;98723.25;4978061;28;1217;-57
2023/10/26 11:46:34;;;;;;;;;;;;;;;24.55;98.20;98714.06;4995508;28;863;-58
2023/10/26 11:49:02;;;;;;;;;;;;;;;24.51;98.89;98716.41;4995296;28;831;-58
2023/10/26 11:51:29;;;;;;;;;;;;;;;24.69;98.80;98708.56;4995309;28;883;-58
2023/10/26 11:53:56;;;;;;;;;;;;;;;24.85;98.12;98714.06;4995556;28;874;-58
2023/10/26 11:56:22;;;;;;;;;;;;;;;24.96;97.81;98709.63;4995317;28;821;-58
2023/10/26 11:58:48;;;;;;;;;;;;;;;24.95;98.23;98700.38;4993853;28;1871;-58
2023/10/26 12:01:15;;;;;;;;;;;;;;;25.08;97.82;98702.56;4977646;28;1328;-58
2023/10/26 12:03:45;;;;;;;;;;;;;;;25.04;97.17;98700.03;4995068;28;847;-58
2023/10/26 12:06:15;;;;;;;;;;;;;;;24.89;97.98;98710.97;4995179;28;1257;-58
2023/10/26 12:08:42;;;;;;;;;;;;;;;24.67;98.90;98714.75;4994984;28;808;-58
2023/10/26 12:11:09;;;;;;;;;;;;;;;24.58;99.54;98723.56;4994898;28;807;-58
2023/10/26 12:13:36;;;;;;;;;;;;;;;24.48;99.69;98725.16;4995042;28;882;-57
2023/10/26 12:16:03;;;;;;;;;;;;;;;24.20;97.16;98732.53;4995019;28;803;-57
2023/10/26 12:18:29;;;;;;;;;;;;;;;23.94;97.67;98724.47;4994715;28;1949;-58
2023/10/26 12:20:56;;;;;;;;;;;;;;;23.89;97.98;98727.31;4994833;28;1418;-58
2023/10/26 12:23:22;;;;;;;;;;;;;;;23.89;97.87;98718.84;4994754;28;1239;-58
2023/10/26 12:25:49;;;;;;;;;;;;;;;23.83;96.97;98721.69;4994888;28;870;-58
2023/10/26 12:28:16;;;;;;;;;;;;;;;23.64;97.06;98708.19;4994884;28;839;-58
2023/10/26 12:30:42;;;;;;;;;;;;;;;23.56;97.47;98707.19;4994846;28;882;-58
2023/10/26 12:33:09;;;;;;;;;;;;;;;23.51;97.84;98707.19;4995205;28;752;-58
2023/10/26 12:35:35;;;;;;;;;;;;;;;23.50;97.34;98706.44;4994582;28;823;-59
2023/10/26 12:38:02;;;;;;;;;;;;;;;23.47;96.90;98692.59;4994531;28;1910;-58
2023/10/26 12:40:28;;;;;;;;;;;;;;;23.44;96.67;98683.88;4994424;28;851;-59
2023/10/26 12:42:57;;;;;;;;;;;;;;;23.48;96.27;98685.69;4994350;28;815;-58
2023/10/26 12:45:24;;;;;;;;;;;;;;;23.44;96.05;98672.59;4994991;28;870;-59
2023/10/26 12:47:50;;;;;;;;;;;;;;;23.41;96.24;98662.38;4994483;28;1232;-59
2023/10/26 12:50:18;;;;;;;;;;;;;;;23.41;96.60;98672.91;4976778;28;830;-58
2023/10/26 12:52:45;;;;;;;;;;;;;;;23.46;96.43;98680.56;4976726;28;1209;-59
2023/10/26 12:55:12;;;;;;;;;;;;;;;23.58;96.71;98676.41;4994303;28;824;-59
2023/10/26 12:57:39;;;;;;;;;;;;;;;23.75;96.47;98676.31;4994352;28;1882;-59
2023/10/26 13:00:07;;;;;;;;;;;;;;;23.71;96.57;98680.72;4994075;28;816;-58
2023/10/26 13:02:36;;;;;;;;;;;;;;;23.60;97.32;98675.91;4994242;28;893;-59
2023/10/26 13:05:02;;;;;;;;;;;;;;;23.51;98.14;98671.28;4976519;28;1364;-59
2023/10/26 13:07:31;;;;;;;;;;;;;;;23.47;98.47;98668.00;4994298;28;870;-59
2023/10/26 13:09:58;;;;;;;;;;;;;;;23.66;97.71;98676.59;4993452;28;941;-59
2023/10/26 13:12:24;;;;;;;;;;;;;;;23.87;96.60;98679.88;4993840;28;898;-59
2023/10/26 13:14:51;;;;;;;;;;;;;;;24.02;96.22;98659.75;4976318;28;1181;-59
2023/10/26 13:17:18;;;;;;;;;;;;;;;24.13;95.70;98658.91;4993523;28;1915;-58
2023/10/26 13:19:45;;;;;;;;;;;;;;;24.04;95.78;98643.06;4993813;28;897;-58
2023/10/26 13:22:11;;;;;;;;;;;;;;;23.85;95.90;98640.13;4993713;28;1226;-59
2023/10/26 13:24:37;;;;;;;;;;;;;;;23.74;96.44;98635.28;4994007;28;890;-60
2023/10/26 13:27:04;;;;;;;;;;;;;;;23.65;97.07;98632.78;4993873;28;874;-58
2023/10/26 13:29:32;;;;;;;;;;;;;;;23.56;96.91;98628.22;4976188;28;1042;-59